sensor_id;sensor_type;location;lat;lon;timestamp;pressure;altitude;pressure_sealevel;temperature;humidity
44751;BME280;30477;48.224;11.470;2023-02-05T00:02:14;97935.66;;;0.68;69.51
44751;BME280;30477;48.224;11.470;2023-02-05T00:04:40;97934.97;;;0.60;69.52
44751;BME280;30477;48.224;11.470;2023-02-05T00:07:05;97936.06;;;0.48;69.34
44751;BME280;30477;48.224;11.470;2023-02-05T00:09:31;97937.09;;;0.39;69.91
44751;BME280;30477;48.224;11.470;2023-02-05T00:11:57;97943.44;;;0.60;70.25
44751;BME280;30477;48.224;11.470;2023-02-05T00:14:23;97938.91;;;0.75;70.45
44751;BME280;30477;48.224;11.470;2023-02-05T00:16:49;97932.22;;;0.69;69.94
44751;BME280;30477;48.224;11.470;2023-02-05T00:19:14;97933.59;;;0.44;69.83
44751;BME280;30477;48.224;11.470;2023-02-05T00:21:39;97932.22;;;0.27;70.26
44751;BME280;30477;48.224;11.470;2023-02-05T00:24:05;97923.78;;;0.25;70.36
44751;BME280;30477;48.224;11.470;2023-02-05T00:26:32;97932.44;;;0.18;70.35
44751;BME280;30477;48.224;11.470;2023-02-05T00:28:57;97921.66;;;0.04;70.56
44751;BME280;30477;48.224;11.470;2023-02-05T00:31:23;97927.75;;;-0.04;70.85
44751;BME280;30477;48.224;11.470;2023-02-05T00:33:50;97925.84;;;0.06;71.32
44751;BME280;30477;48.224;11.470;2023-02-05T00:36:16;97929.16;;;0.13;71.23
44751;BME280;30477;48.224;11.470;2023-02-05T00:38:42;97933.38;;;0.12;71.28
44751;BME280;30477;48.224;11.470;2023-02-05T00:41:08;97932.50;;;0.15;71.26
44751;BME280;30477;48.224;11.470;2023-02-05T00:43:33;97930.78;;;0.15;71.16
44751;BME280;30477;48.224;11.470;2023-02-05T00:45:59;97932.50;;;0.15;71.10
44751;BME280;30477;48.224;11.470;2023-02-05T00:48:24;97926.53;;;0.14;71.01
44751;BME280;30477;48.224;11.470;2023-02-05T00:50:50;97939.06;;;0.25;71.20
44751;BME280;30477;48.224;11.470;2023-02-05T00:53:16;97943.44;;;0.18;70.99
44751;BME280;30477;48.224;11.470;2023-02-05T00:55:42;97944.91;;;0.30;71.16
44751;BME280;30477;48.224;11.470;2023-02-05T00:58:07;97948.88;;;0.44;71.23
44751;BME280;30477;48.224;11.470;2023-02-05T01:00:32;97953.50;;;0.25;70.69
44751;BME280;30477;48.224;11.470;2023-02-05T01:02:58;97948.75;;;0.08;70.44
44751;BME280;30477;48.224;11.470;2023-02-05T01:05:24;97944.66;;;-0.01;70.63
44751;BME280;30477;48.224;11.470;2023-02-05T01:07:49;97948.84;;;0.02;70.79
44751;BME280;30477;48.224;11.470;2023-02-05T01:10:15;97938.72;;;0.00;70.75
44751;BME280;30477;48.224;11.470;2023-02-05T01:12:40;97936.19;;;-0.02;70.75
44751;BME280;30477;48.224;11.470;2023-02-05T01:15:06;97939.56;;;0.01;70.66
44751;BME280;30477;48.224;11.470;2023-02-05T01:17:33;97934.50;;;-0.03;70.76
44751;BME280;30477;48.224;11.470;2023-02-05T01:19:58;97933.34;;;0.15;71.22
44751;BME280;30477;48.224;11.470;2023-02-05T01:22:23;97934.03;;;0.22;70.48
44751;BME280;30477;48.224;11.470;2023-02-05T01:24:49;97929.84;;;0.19;70.84
44751;BME280;30477;48.224;11.470;2023-02-05T01:27:15;97929.25;;;0.07;70.46
44751;BME280;30477;48.224;11.470;2023-02-05T01:29:40;97926.16;;;-0.09;70.34
44751;BME280;30477;48.224;11.470;2023-02-05T01:32:06;97927.66;;;0.01;71.24
44751;BME280;30477;48.224;11.470;2023-02-05T01:34:31;97923.97;;;0.16;70.95
44751;BME280;30477;48.224;11.470;2023-02-05T01:36:56;97932.41;;;0.19;70.89
44751;BME280;30477;48.224;11.470;2023-02-05T01:39:22;97920.75;;;0.08;70.25
44751;BME280;30477;48.224;11.470;2023-02-05T01:41:47;97930.28;;;-0.02;70.59
44751;BME280;30477;48.224;11.470;2023-02-05T01:44:16;97925.94;;;0.02;71.08
44751;BME280;30477;48.224;11.470;2023-02-05T01:46:44;97922.53;;;0.03;70.56
44751;BME280;30477;48.224;11.470;2023-02-05T01:49:18;97920.47;;;-0.24;70.67
44751;BME280;30477;48.224;11.470;2023-02-05T01:51:46;97922.00;;;-0.15;71.58
44751;BME280;30477;48.224;11.470;2023-02-05T01:54:14;97924.44;;;-0.09;71.34
44751;BME280;30477;48.224;11.470;2023-02-05T01:56:51;97921.19;;;-0.17;71.04
44751;BME280;30477;48.224;11.470;2023-02-05T01:59:25;97927.34;;;-0.29;70.92
44751;BME280;30477;48.224;11.470;2023-02-05T02:01:52;97923.16;;;-0.31;71.18
44751;BME280;30477;48.224;11.470;2023-02-05T02:07:04;97917.72;;;-0.11;71.64
44751;BME280;30477;48.224;11.470;2023-02-05T02:09:30;97915.22;;;-0.14;71.38
44751;BME280;30477;48.224;11.470;2023-02-05T02:11:57;97918.84;;;-0.28;71.19
44751;BME280;30477;48.224;11.470;2023-02-05T02:14:23;97912.19;;;-0.35;71.16
44751;BME280;30477;48.224;11.470;2023-02-05T02:16:50;97904.59;;;-0.36;71.40
44751;BME280;30477;48.224;11.470;2023-02-05T02:19:21;97909.69;;;-0.38;71.40
44751;BME280;30477;48.224;11.470;2023-02-05T02:27:38;97899.41;;;-0.30;71.41
44751;BME280;30477;48.224;11.470;2023-02-05T02:30:11;97895.25;;;-0.36;71.50
44751;BME280;30477;48.224;11.470;2023-02-05T02:32:44;97895.50;;;-0.48;71.59
44751;BME280;30477;48.224;11.470;2023-02-05T02:35:24;97895.41;;;-0.45;71.99
44751;BME280;30477;48.224;11.470;2023-02-05T02:40:47;97895.31;;;-0.39;71.80
44751;BME280;30477;48.224;11.470;2023-02-05T02:43:18;97885.94;;;-0.37;72.01
44751;BME280;30477;48.224;11.470;2023-02-05T02:45:58;97887.66;;;-0.37;71.83
44751;BME280;30477;48.224;11.470;2023-02-05T02:48:27;97889.00;;;-0.19;72.24
44751;BME280;30477;48.224;11.470;2023-02-05T02:50:55;97888.88;;;-0.12;71.90
44751;BME280;30477;48.224;11.470;2023-02-05T02:53:25;97886.53;;;-0.23;71.67
44751;BME280;30477;48.224;11.470;2023-02-05T02:55:54;97882.47;;;-0.33;71.80
44751;BME280;30477;48.224;11.470;2023-02-05T02:58:34;97891.13;;;-0.42;71.86
44751;BME280;30477;48.224;11.470;2023-02-05T03:01:03;97891.13;;;-0.42;71.85
44751;BME280;30477;48.224;11.470;2023-02-05T03:03:36;97890.22;;;-0.39;72.03
44751;BME280;30477;48.224;11.470;2023-02-05T03:06:05;97888.47;;;-0.35;72.04
44751;BME280;30477;48.224;11.470;2023-02-05T03:08:49;97892.56;;;-0.28;72.07
44751;BME280;30477;48.224;11.470;2023-02-05T03:11:17;97878.94;;;-0.26;72.15
44751;BME280;30477;48.224;11.470;2023-02-05T03:13:43;97867.19;;;-0.31;72.03
44751;BME280;30477;48.224;11.470;2023-02-05T03:16:09;97864.69;;;-0.34;72.26
44751;BME280;30477;48.224;11.470;2023-02-05T03:18:35;97863.03;;;-0.35;72.10
44751;BME280;30477;48.224;11.470;2023-02-05T03:21:15;97865.63;;;-0.38;72.13
44751;BME280;30477;48.224;11.470;2023-02-05T03:23:41;97861.31;;;-0.35;72.37
44751;BME280;30477;48.224;11.470;2023-02-05T03:26:24;97852.00;;;-0.36;72.01
44751;BME280;30477;48.224;11.470;2023-02-05T03:28:50;97853.69;;;-0.35;72.13
44751;BME280;30477;48.224;11.470;2023-02-05T03:31:23;97846.84;;;-0.31;72.57
44751;BME280;30477;48.224;11.470;2023-02-05T03:34:01;97841.59;;;-0.24;72.08
44751;BME280;30477;48.224;11.470;2023-02-05T03:42:46;97836.47;;;-0.22;72.20
44751;BME280;30477;48.224;11.470;2023-02-05T03:48:14;97840.63;;;-0.16;71.65
44751;BME280;30477;48.224;11.470;2023-02-05T03:53:29;97848.25;;;-0.63;71.50
44751;BME280;30477;48.224;11.470;2023-02-05T03:56:20;97854.31;;;-0.70;71.62
44751;BME280;30477;48.224;11.470;2023-02-05T03:58:51;97853.56;;;-0.75;71.61
44751;BME280;30477;48.224;11.470;2023-02-05T04:01:17;97851.75;;;-0.67;72.30
44751;BME280;30477;48.224;11.470;2023-02-05T04:03:43;97857.28;;;-0.47;72.19
44751;BME280;30477;48.224;11.470;2023-02-05T04:06:09;97852.28;;;-0.51;71.53
44751;BME280;30477;48.224;11.470;2023-02-05T04:08:34;97845.84;;;-0.69;71.63
44751;BME280;30477;48.224;11.470;2023-02-05T04:11:00;97848.38;;;-0.69;71.62
44751;BME280;30477;48.224;11.470;2023-02-05T04:13:25;97843.22;;;-0.65;72.09
44751;BME280;30477;48.224;11.470;2023-02-05T04:15:51;97835.88;;;-0.82;71.67
44751;BME280;30477;48.224;11.470;2023-02-05T04:18:16;97830.91;;;-0.88;72.15
44751;BME280;30477;48.224;11.470;2023-02-05T04:20:42;97842.72;;;-0.87;71.94
44751;BME280;30477;48.224;11.470;2023-02-05T04:23:07;97841.09;;;-0.89;71.92
44751;BME280;30477;48.224;11.470;2023-02-05T04:25:35;97839.41;;;-0.90;72.01
44751;BME280;30477;48.224;11.470;2023-02-05T04:28:01;97831.03;;;-0.97;71.87
44751;BME280;30477;48.224;11.470;2023-02-05T04:30:26;97822.66;;;-1.02;72.11
44751;BME280;30477;48.224;11.470;2023-02-05T04:32:51;97829.47;;;-1.04;72.26
44751;BME280;30477;48.224;11.470;2023-02-05T04:35:17;97815.84;;;-0.98;72.30
44751;BME280;30477;48.224;11.470;2023-02-05T04:37:42;97812.41;;;-0.97;72.35
44751;BME280;30477;48.224;11.470;2023-02-05T04:40:08;97807.31;;;-0.96;72.37
44751;BME280;30477;48.224;11.470;2023-02-05T04:42:33;97808.22;;;-0.98;72.05
44751;BME280;30477;48.224;11.470;2023-02-05T04:44:59;97809.88;;;-0.97;72.18
44751;BME280;30477;48.224;11.470;2023-02-05T04:47:24;97813.34;;;-1.02;72.07
44751;BME280;30477;48.224;11.470;2023-02-05T04:49:50;97820.94;;;-1.02;72.37
44751;BME280;30477;48.224;11.470;2023-02-05T04:52:15;97818.41;;;-1.02;72.23
44751;BME280;30477;48.224;11.470;2023-02-05T04:54:40;97816.81;;;-1.07;71.81
44751;BME280;30477;48.224;11.470;2023-02-05T04:57:06;97819.59;;;-1.21;72.05
44751;BME280;30477;48.224;11.470;2023-02-05T04:59:31;97811.22;;;-1.28;72.02
44751;BME280;30477;48.224;11.470;2023-02-05T05:01:57;97809.41;;;-1.19;72.36
44751;BME280;30477;48.224;11.470;2023-02-05T05:04:23;97817.75;;;-1.13;72.45
44751;BME280;30477;48.224;11.470;2023-02-05T05:06:48;97811.88;;;-1.16;72.13
44751;BME280;30477;48.224;11.470;2023-02-05T05:09:14;97807.59;;;-1.13;72.44
44751;BME280;30477;48.224;11.470;2023-02-05T05:11:39;97811.81;;;-1.12;72.29
44751;BME280;30477;48.224;11.470;2023-02-05T05:14:05;97810.97;;;-1.12;72.26
44751;BME280;30477;48.224;11.470;2023-02-05T05:16:30;97802.44;;;-1.08;72.24
44751;BME280;30477;48.224;11.470;2023-02-05T05:18:55;97804.19;;;-1.12;72.29
44751;BME280;30477;48.224;11.470;2023-02-05T05:21:21;97804.16;;;-1.10;72.36
44751;BME280;30477;48.224;11.470;2023-02-05T05:23:46;97802.53;;;-1.14;72.23
44751;BME280;30477;48.224;11.470;2023-02-05T05:26:11;97804.31;;;-1.19;72.04
44751;BME280;30477;48.224;11.470;2023-02-05T05:28:38;97807.88;;;-1.30;72.34
44751;BME280;30477;48.224;11.470;2023-02-05T05:31:10;97817.16;;;-1.30;72.28
44751;BME280;30477;48.224;11.470;2023-02-05T05:33:36;97802.91;;;-1.39;72.13
44751;BME280;30477;48.224;11.470;2023-02-05T05:36:01;97791.03;;;-1.37;72.33
44751;BME280;30477;48.224;11.470;2023-02-05T05:38:27;97801.16;;;-1.34;72.45
44751;BME280;30477;48.224;11.470;2023-02-05T05:40:52;97794.44;;;-1.38;72.34
44751;BME280;30477;48.224;11.470;2023-02-05T05:43:36;97797.06;;;-1.42;72.37
44751;BME280;30477;48.224;11.470;2023-02-05T05:46:10;97811.50;;;-1.45;72.27
44751;BME280;30477;48.224;11.470;2023-02-05T05:48:36;97815.66;;;-1.40;72.47
44751;BME280;30477;48.224;11.470;2023-02-05T05:51:01;97815.59;;;-1.36;72.41
44751;BME280;30477;48.224;11.470;2023-02-05T05:53:26;97813.94;;;-1.38;72.59
44751;BME280;30477;48.224;11.470;2023-02-05T05:55:52;97806.38;;;-1.43;72.31
44751;BME280;30477;48.224;11.470;2023-02-05T05:58:17;97803.91;;;-1.49;72.31
44751;BME280;30477;48.224;11.470;2023-02-05T06:00:43;97804.81;;;-1.52;72.36
44751;BME280;30477;48.224;11.470;2023-02-05T06:03:09;97814.03;;;-1.46;72.50
44751;BME280;30477;48.224;11.470;2023-02-05T06:05:35;97808.97;;;-1.48;72.44
44751;BME280;30477;48.224;11.470;2023-02-05T06:08:01;97814.06;;;-1.49;72.39
44751;BME280;30477;48.224;11.470;2023-02-05T06:10:26;97806.50;;;-1.52;72.60
44751;BME280;30477;48.224;11.470;2023-02-05T06:12:52;97805.53;;;-1.44;72.66
44751;BME280;30477;48.224;11.470;2023-02-05T06:15:18;97808.81;;;-1.37;72.54
44751;BME280;30477;48.224;11.470;2023-02-05T06:17:44;97807.25;;;-1.44;72.49
44751;BME280;30477;48.224;11.470;2023-02-05T06:20:10;97798.00;;;-1.48;72.62
44751;BME280;30477;48.224;11.470;2023-02-05T06:22:36;97797.09;;;-1.44;72.76
44751;BME280;30477;48.224;11.470;2023-02-05T06:25:02;97803.78;;;-1.38;72.68
44751;BME280;30477;48.224;11.470;2023-02-05T06:27:28;97810.53;;;-1.39;72.67
44751;BME280;30477;48.224;11.470;2023-02-05T06:29:54;97816.53;;;-1.43;72.68
44751;BME280;30477;48.224;11.470;2023-02-05T06:32:19;97825.09;;;-1.50;72.75
44751;BME280;30477;48.224;11.470;2023-02-05T06:34:45;97826.81;;;-1.52;72.86
44751;BME280;30477;48.224;11.470;2023-02-05T06:37:11;97825.91;;;-1.47;73.04
44751;BME280;30477;48.224;11.470;2023-02-05T06:39:36;97824.19;;;-1.46;72.86
44751;BME280;30477;48.224;11.470;2023-02-05T06:42:02;97831.81;;;-1.46;72.63
44751;BME280;30477;48.224;11.470;2023-02-05T06:44:28;97835.19;;;-1.46;73.03
44751;BME280;30477;48.224;11.470;2023-02-05T06:46:53;97822.47;;;-1.44;72.52
44751;BME280;30477;48.224;11.470;2023-02-05T06:49:19;97831.72;;;-1.40;72.87
44751;BME280;30477;48.224;11.470;2023-02-05T06:51:44;97827.50;;;-1.41;72.54
44751;BME280;30477;48.224;11.470;2023-02-05T06:54:09;97823.38;;;-1.47;72.82
44751;BME280;30477;48.224;11.470;2023-02-05T06:56:35;97828.41;;;-1.45;72.44
44751;BME280;30477;48.224;11.470;2023-02-05T06:59:00;97838.53;;;-1.42;72.82
44751;BME280;30477;48.224;11.470;2023-02-05T07:01:25;97843.53;;;-1.36;73.17
44751;BME280;30477;48.224;11.470;2023-02-05T07:03:51;97836.75;;;-1.37;72.59
44751;BME280;30477;48.224;11.470;2023-02-05T07:06:20;97841.91;;;-1.43;72.86
44751;BME280;30477;48.224;11.470;2023-02-05T07:08:48;97835.16;;;-1.42;72.89
44751;BME280;30477;48.224;11.470;2023-02-05T07:11:13;97840.19;;;-1.41;72.85
44751;BME280;30477;48.224;11.470;2023-02-05T07:13:39;97852.03;;;-1.38;72.92
44751;BME280;30477;48.224;11.470;2023-02-05T07:16:04;97844.44;;;-1.40;73.09
44751;BME280;30477;48.224;11.470;2023-02-05T07:18:31;97837.69;;;-1.42;72.72
44751;BME280;30477;48.224;11.470;2023-02-05T07:20:57;97824.09;;;-1.38;73.08
44751;BME280;30477;48.224;11.470;2023-02-05T07:23:23;97822.16;;;-1.24;73.36
44751;BME280;30477;48.224;11.470;2023-02-05T07:25:48;97824.50;;;-1.10;73.25
44751;BME280;30477;48.224;11.470;2023-02-05T07:28:14;97825.31;;;-1.08;73.34
44751;BME280;30477;48.224;11.470;2023-02-05T07:30:39;97822.75;;;-1.08;73.09
44751;BME280;30477;48.224;11.470;2023-02-05T07:33:04;97831.19;;;-1.05;73.01
44751;BME280;30477;48.224;11.470;2023-02-05T07:35:31;97824.50;;;-1.10;73.04
44751;BME280;30477;48.224;11.470;2023-02-05T07:37:56;97820.31;;;-1.13;72.84
44751;BME280;30477;48.224;11.470;2023-02-05T07:40:22;97826.16;;;-1.09;73.06
44751;BME280;30477;48.224;11.470;2023-02-05T07:42:47;97832.00;;;-1.04;73.32
44751;BME280;30477;48.224;11.470;2023-02-05T07:45:12;97835.38;;;-1.04;73.03
44751;BME280;30477;48.224;11.470;2023-02-05T07:47:38;97837.81;;;-0.96;73.62
44751;BME280;30477;48.224;11.470;2023-02-05T07:50:04;97835.97;;;-0.88;73.21
44751;BME280;30477;48.224;11.470;2023-02-05T07:52:30;97827.44;;;-0.84;73.20
44751;BME280;30477;48.224;11.470;2023-02-05T07:54:56;97837.59;;;-0.84;73.32
44751;BME280;30477;48.224;11.470;2023-02-05T07:57:21;97839.38;;;-0.89;73.34
44751;BME280;30477;48.224;11.470;2023-02-05T07:59:47;97834.25;;;-0.86;73.23
44751;BME280;30477;48.224;11.470;2023-02-05T08:02:12;97844.34;;;-0.83;73.29
44751;BME280;30477;48.224;11.470;2023-02-05T08:04:37;97841.06;;;-0.88;73.46
44751;BME280;30477;48.224;11.470;2023-02-05T08:07:03;97838.44;;;-0.83;73.47
44751;BME280;30477;48.224;11.470;2023-02-05T08:09:28;97845.16;;;-0.80;73.55
44751;BME280;30477;48.224;11.470;2023-02-05T08:11:54;97852.78;;;-0.79;73.62
44751;BME280;30477;48.224;11.470;2023-02-05T08:14:19;97850.16;;;-0.74;73.48
44751;BME280;30477;48.224;11.470;2023-02-05T08:16:44;97847.56;;;-0.71;73.80
44751;BME280;30477;48.224;11.470;2023-02-05T08:19:16;97847.44;;;-0.65;73.56
44751;BME280;30477;48.224;11.470;2023-02-05T08:21:42;97845.69;;;-0.63;73.70
44751;BME280;30477;48.224;11.470;2023-02-05T08:24:08;97844.47;;;-0.42;74.22
44751;BME280;30477;48.224;11.470;2023-02-05T08:26:33;97838.34;;;-0.30;73.91
44751;BME280;30477;48.224;11.470;2023-02-05T08:28:59;97824.81;;;-0.32;73.56
44751;BME280;30477;48.224;11.470;2023-02-05T08:31:24;97824.81;;;-0.32;73.57
44751;BME280;30477;48.224;11.470;2023-02-05T08:33:50;97815.34;;;-0.26;73.64
44751;BME280;30477;48.224;11.470;2023-02-05T08:36:19;97824.56;;;-0.20;73.63
44751;BME280;30477;48.224;11.470;2023-02-05T08:38:45;97822.84;;;-0.19;73.52
44751;BME280;30477;48.224;11.470;2023-02-05T08:41:10;97823.53;;;-0.11;73.48
44751;BME280;30477;48.224;11.470;2023-02-05T08:43:40;97806.50;;;-0.08;73.30
44751;BME280;30477;48.224;11.470;2023-02-05T08:46:06;97798.88;;;-0.08;73.12
44751;BME280;30477;48.224;11.470;2023-02-05T08:48:31;97796.22;;;-0.03;73.15
44751;BME280;30477;48.224;11.470;2023-02-05T08:50:57;97782.53;;;0.03;72.91
44751;BME280;30477;48.224;11.470;2023-02-05T08:53:22;97780.72;;;0.08;72.93
44751;BME280;30477;48.224;11.470;2023-02-05T08:55:55;97777.94;;;0.18;72.98
44751;BME280;30477;48.224;11.470;2023-02-05T08:58:21;97771.88;;;0.24;72.74
44751;BME280;30477;48.224;11.470;2023-02-05T09:00:47;97770.94;;;0.28;72.40
44751;BME280;30477;48.224;11.470;2023-02-05T09:03:12;97767.31;;;0.38;72.41
44751;BME280;30477;48.224;11.470;2023-02-05T09:05:38;97759.38;;;0.51;72.44
44751;BME280;30477;48.224;11.470;2023-02-05T09:08:03;97754.94;;;0.59;72.16
44751;BME280;30477;48.224;11.470;2023-02-05T09:10:29;97750.66;;;0.61;71.98
44751;BME280;30477;48.224;11.470;2023-02-05T09:12:55;97748.00;;;0.66;72.17
44751;BME280;30477;48.224;11.470;2023-02-05T09:15:20;97750.41;;;0.72;72.17
44751;BME280;30477;48.224;11.470;2023-02-05T09:17:45;97748.78;;;0.68;72.01
44751;BME280;30477;48.224;11.470;2023-02-05T09:20:11;97742.09;;;0.64;72.06
44751;BME280;30477;48.224;11.470;2023-02-05T09:22:37;97746.50;;;0.57;72.05
44751;BME280;30477;48.224;11.470;2023-02-05T09:25:06;97743.00;;;0.61;72.22
44751;BME280;30477;48.224;11.470;2023-02-05T09:27:31;97739.56;;;0.62;72.28
44751;BME280;30477;48.224;11.470;2023-02-05T09:29:57;97738.47;;;0.72;72.58
44751;BME280;30477;48.224;11.470;2023-02-05T09:32:22;97739.28;;;0.74;72.50
44751;BME280;30477;48.224;11.470;2023-02-05T09:34:48;97744.28;;;0.77;72.68
44751;BME280;30477;48.224;11.470;2023-02-05T09:37:16;97733.72;;;0.93;72.90
44751;BME280;30477;48.224;11.470;2023-02-05T09:39:42;97741.91;;;1.04;72.80
44751;BME280;30477;48.224;11.470;2023-02-05T09:44:48;97721.69;;;0.98;72.43
44751;BME280;30477;48.224;11.470;2023-02-05T09:47:25;97724.03;;;1.06;72.74
44751;BME280;30477;48.224;11.470;2023-02-05T09:52:41;97719.00;;;1.34;73.05
44751;BME280;30477;48.224;11.470;2023-02-05T09:57:43;97714.16;;;1.56;72.61
44751;BME280;30477;48.224;11.470;2023-02-05T10:03:29;97699.81;;;1.81;72.41
44751;BME280;30477;48.224;11.470;2023-02-05T10:06:18;97687.69;;;1.88;72.37
44751;BME280;30477;48.224;11.470;2023-02-05T10:11:48;97691.25;;;2.11;71.94
44751;BME280;30477;48.224;11.470;2023-02-05T10:17:07;97666.41;;;2.16;71.41
44751;BME280;30477;48.224;11.470;2023-02-05T10:36:13;97636.06;;;2.83;70.09
44751;BME280;30477;48.224;11.470;2023-02-05T10:38:42;97634.81;;;2.94;69.83
44751;BME280;30477;48.224;11.470;2023-02-05T10:44:11;97629.28;;;3.30;69.23
44751;BME280;30477;48.224;11.470;2023-02-05T10:46:39;97628.41;;;3.31;68.85
44751;BME280;30477;48.224;11.470;2023-02-05T10:49:14;97618.81;;;3.36;68.75
44751;BME280;30477;48.224;11.470;2023-02-05T10:51:43;97623.81;;;3.39;68.30
44751;BME280;30477;48.224;11.470;2023-02-05T10:54:30;97615.03;;;3.46;67.46
44751;BME280;30477;48.224;11.470;2023-02-05T10:56:57;97612.47;;;3.46;67.34
44751;BME280;30477;48.224;11.470;2023-02-05T10:59:26;97606.09;;;3.56;67.12
44751;BME280;30477;48.224;11.470;2023-02-05T11:01:54;97604.13;;;3.63;66.62
44751;BME280;30477;48.224;11.470;2023-02-05T11:04:41;97604.09;;;3.64;66.14
44751;BME280;30477;48.224;11.470;2023-02-05T11:07:14;97609.56;;;3.55;65.99
44751;BME280;30477;48.224;11.470;2023-02-05T11:09:43;97598.59;;;3.52;65.72
44751;BME280;30477;48.224;11.470;2023-02-05T11:12:36;97608.72;;;3.55;65.84
44751;BME280;30477;48.224;11.470;2023-02-05T11:15:02;97597.41;;;3.60;65.82
44751;BME280;30477;48.224;11.470;2023-02-05T11:17:34;97598.38;;;3.58;65.48
44751;BME280;30477;48.224;11.470;2023-02-05T11:20:10;97592.88;;;3.45;64.91
44751;BME280;30477;48.224;11.470;2023-02-05T11:22:46;97594.50;;;3.48;64.77
44751;BME280;30477;48.224;11.470;2023-02-05T11:25:17;97592.44;;;3.57;65.17
44751;BME280;30477;48.224;11.470;2023-02-05T11:27:58;97589.25;;;3.73;65.17
44751;BME280;30477;48.224;11.470;2023-02-05T11:30:37;97595.78;;;3.80;65.16
44751;BME280;30477;48.224;11.470;2023-02-05T11:33:29;97591.03;;;3.71;64.51
44751;BME280;30477;48.224;11.470;2023-02-05T11:36:04;97609.19;;;3.64;64.76
44751;BME280;30477;48.224;11.470;2023-02-05T11:41:07;97608.72;;;3.55;65.29
44751;BME280;30477;48.224;11.470;2023-02-05T11:43:35;97606.09;;;3.56;65.75
44751;BME280;30477;48.224;11.470;2023-02-05T11:46:14;97609.94;;;3.68;66.20
44751;BME280;30477;48.224;11.470;2023-02-05T11:48:42;97614.22;;;3.68;65.63
44751;BME280;30477;48.224;11.470;2023-02-05T11:51:12;97605.09;;;3.60;65.65
44751;BME280;30477;48.224;11.470;2023-02-05T11:53:52;97599.31;;;3.55;65.71
44751;BME280;30477;48.224;11.470;2023-02-05T11:56:21;97604.13;;;3.63;66.00
44751;BME280;30477;48.224;11.470;2023-02-05T11:59:20;97603.44;;;3.59;65.94
44751;BME280;30477;48.224;11.470;2023-02-05T12:01:46;97602.03;;;3.51;65.98
44751;BME280;30477;48.224;11.470;2023-02-05T12:04:16;97603.34;;;3.61;66.18
44751;BME280;30477;48.224;11.470;2023-02-05T12:07:04;97600.19;;;3.54;66.14
44751;BME280;30477;48.224;11.470;2023-02-05T12:09:37;97602.91;;;3.51;66.35
44751;BME280;30477;48.224;11.470;2023-02-05T12:12:18;97602.91;;;3.51;66.56
44751;BME280;30477;48.224;11.470;2023-02-05T12:18:02;97594.63;;;3.44;65.79
44751;BME280;30477;48.224;11.470;2023-02-05T12:26:41;97585.84;;;3.50;66.07
44751;BME280;30477;48.224;11.470;2023-02-05T12:29:13;97593.44;;;3.53;66.19
44751;BME280;30477;48.224;11.470;2023-02-05T12:32:08;97581.22;;;3.60;66.19
44751;BME280;30477;48.224;11.470;2023-02-05T12:37:43;97579.31;;;3.43;65.74
44751;BME280;30477;48.224;11.470;2023-02-05T12:43:19;97577.09;;;3.34;65.97
44751;BME280;30477;48.224;11.470;2023-02-05T12:48:56;97569.19;;;3.40;66.14
44751;BME280;30477;48.224;11.470;2023-02-05T12:52:29;97566.53;;;3.43;66.44
44751;BME280;30477;48.224;11.470;2023-02-05T12:54:59;97573.38;;;3.42;66.29
44751;BME280;30477;48.224;11.470;2023-02-05T12:57:41;97565.19;;;3.55;66.43
44751;BME280;30477;48.224;11.470;2023-02-05T13:00:32;97566.75;;;3.59;66.54
44751;BME280;30477;48.224;11.470;2023-02-05T13:03:10;97562.41;;;3.61;66.59
44751;BME280;30477;48.224;11.470;2023-02-05T13:05:45;97571.63;;;3.43;66.72
44751;BME280;30477;48.224;11.470;2023-02-05T13:08:19;97565.78;;;3.39;67.25
44751;BME280;30477;48.224;11.470;2023-02-05T13:10:51;97566.47;;;3.44;67.35
44751;BME280;30477;48.224;11.470;2023-02-05T13:13:24;97566.81;;;3.57;67.42
44751;BME280;30477;48.224;11.470;2023-02-05T13:16:02;97563.00;;;3.68;67.42
44751;BME280;30477;48.224;11.470;2023-02-05T13:18:33;97567.50;;;3.61;67.15
44751;BME280;30477;48.224;11.470;2023-02-05T13:21:11;97569.53;;;3.31;67.26
44751;BME280;30477;48.224;11.470;2023-02-05T13:26:48;97559.53;;;3.24;68.45
44751;BME280;30477;48.224;11.470;2023-02-05T13:29:42;97550.03;;;3.28;68.51
44751;BME280;30477;48.224;11.470;2023-02-05T13:32:12;97557.38;;;3.36;69.14
44751;BME280;30477;48.224;11.470;2023-02-05T13:34:40;97541.09;;;3.38;69.16
44751;BME280;30477;48.224;11.470;2023-02-05T13:58:52;97543.94;;;3.31;69.98
44751;BME280;30477;48.224;11.470;2023-02-05T14:01:28;97543.66;;;3.38;70.05
44751;BME280;30477;48.224;11.470;2023-02-05T14:04:07;97542.75;;;3.39;69.95
44751;BME280;30477;48.224;11.470;2023-02-05T14:06:39;97544.34;;;3.42;70.11
44751;BME280;30477;48.224;11.470;2023-02-05T14:09:21;97543.59;;;3.40;69.87
44751;BME280;30477;48.224;11.470;2023-02-05T14:11:55;97545.44;;;3.36;69.97
44751;BME280;30477;48.224;11.470;2023-02-05T14:14:24;97545.13;;;3.44;70.27
44751;BME280;30477;48.224;11.470;2023-02-05T14:16:49;97545.38;;;3.38;69.94
44751;BME280;30477;48.224;11.470;2023-02-05T14:19:22;97541.25;;;3.34;70.08
44751;BME280;30477;48.224;11.470;2023-02-05T14:21:58;97539.41;;;3.37;70.28
44751;BME280;30477;48.224;11.470;2023-02-05T14:29:55;97539.13;;;3.45;70.41
44751;BME280;30477;48.224;11.470;2023-02-05T14:37:44;97536.03;;;3.37;70.71
44751;BME280;30477;48.224;11.470;2023-02-05T14:42:46;97535.13;;;3.38;70.84
44751;BME280;30477;48.224;11.470;2023-02-05T14:45:15;97530.78;;;3.40;70.99
44751;BME280;30477;48.224;11.470;2023-02-05T14:47:42;97527.75;;;3.52;71.34
44751;BME280;30477;48.224;11.470;2023-02-05T14:50:29;97529.09;;;3.40;70.99
44751;BME280;30477;48.224;11.470;2023-02-05T14:52:59;97528.22;;;3.18;71.05
44751;BME280;30477;48.224;11.470;2023-02-05T14:55:27;97521.19;;;3.01;71.15
44751;BME280;30477;48.224;11.470;2023-02-05T14:58:02;97523.03;;;2.97;71.65
44751;BME280;30477;48.224;11.470;2023-02-05T15:00:36;97522.44;;;2.91;72.10
44751;BME280;30477;48.224;11.470;2023-02-05T15:03:15;97528.31;;;2.93;72.22
44751;BME280;30477;48.224;11.470;2023-02-05T15:11:06;97529.75;;;2.76;73.02